Bill Jr — WCO6976 — position and weather

sailwx.info

Track history (hours):
 
Tides and Currents Weather Stations Pressure Air Temp Water Temp Dewpoint Dewpoint Depression Visibility Wind Speed Wind Dir Waves Ship Positions

Bill Jr

Owner: DAWSON VESSELS INC, MOBILE, AL. More information available from US FCC via Universal Licensing System and Coast Guard Vessel Documentation Center.

Last reported at 2015-May-22 23:10 UTC. Time now 2015-May-23 08:48 UTC.
Position N 29°57' W 090°03'.

Length 21 m.

MMSI: 366976750.

Date/timePositionNaut miles runAvg speedWind from/ knotsBaromVisibWave heightAir tempDewpointWater temp
2015-May-22 23:10N 29°57' W 090°03'6 2.0
2015-May-22 20:12N 29°55' W 089°56'6 1.7
2015-May-22 16:27N 29°57' W 090°04'4 0.1
2015-May-20 13:30N 29°57' W 090°08'0 0.0
2015-May-20 12:10N 29°57' W 090°08'0 0.3
2015-May-20 11:32N 29°57' W 090°08'0 0.2
2015-May-20 10:27N 29°57' W 090°08'0 0.2
2015-May-20 09:22N 29°57' W 090°08'1 0.6
2015-May-20 08:33N 29°56' W 090°09'1 0.5
2015-May-20 07:29N 29°57' W 090°08'0 0.0
2015-May-20 06:31N 29°57' W 090°08'0 0.0
2015-May-20 05:30N 29°57' W 090°08'1 0.5
2015-May-20 04:29N 29°56' W 090°09'0 0.4
2015-May-20 03:34N 29°56' W 090°08'0 0.1
2015-May-20 02:28N 29°56' W 090°08'0 0.2
2015-May-20 00:10N 29°56' W 090°09'1 0.7
2015-May-19 23:16N 29°57' W 090°08'1 0.0
2015-May-19 03:29N 29°56' W 090°09'0 0.0
2015-May-18 06:08N 29°56' W 090°08'0 0.1
2015-May-18 05:21N 29°56' W 090°09'0 0.2
2015-May-18 03:16N 29°56' W 090°08'0 0.0
2015-May-18 02:22N 29°56' W 090°08'0 0.1
2015-May-18 01:33N 29°56' W 090°08'0 0.1
2015-May-18 00:32N 29°56' W 090°08'0 0.0
2015-May-17 23:27N 29°56' W 090°08'0 0.0
2015-May-17 22:25N 29°56' W 090°08'0 0.1
2015-May-17 21:21N 29°56' W 090°08'0 0.2
2015-May-17 20:27N 29°57' W 090°08'0 0.0
2015-May-17 19:32N 29°57' W 090°08'0 0.0
2015-May-17 18:33N 29°57' W 090°08'0 0.4
2015-May-17 17:32N 29°56' W 090°08'0 0.3
2015-May-17 16:11N 29°57' W 090°08'0 0.2
2015-May-17 15:26N 29°56' W 090°08'0 0.0
2015-May-17 14:07N 29°56' W 090°08'0 0.0
2015-May-17 13:32N 29°56' W 090°08'0 0.2
2015-May-17 12:20N 29°56' W 090°08'0 0.3
2015-May-17 11:19N 29°56' W 090°08'0 0.4
2015-May-17 10:29N 29°57' W 090°08'0 0.1
2015-May-17 08:04N 29°56' W 090°08'0 0.0
2015-May-17 07:21N 29°56' W 090°08'0 0.0
2015-May-17 06:29N 29°56' W 090°08'0 0.2
2015-May-17 05:27N 29°56' W 090°08'0 0.0
2015-May-16 17:29N 29°56' W 090°08'0 0.0
2015-May-16 05:12N 29°56' W 090°08'0 0.2
2015-May-16 04:05N 29°57' W 090°08'0 0.0
2015-May-15 21:18N 29°56' W 090°08'0 0.0
2015-May-15 17:19N 29°56' W 090°08'0 0.0
2015-May-15 15:30N 29°56' W 090°08'0 0.0
2015-May-15 14:04N 29°56' W 090°08'0 0.0
2015-May-15 13:24N 29°56' W 090°08'0 0.0
2015-May-15 12:06N 29°56' W 090°08'0 0.0
2015-May-15 11:14N 29°56' W 090°08'0 0.0
2015-May-15 07:24N 29°56' W 090°08'0 0.2
2015-May-15 06:25N 29°56' W 090°08'0 0.0
2015-May-14 13:24N 29°56' W 090°08'0 0.0
2015-May-14 08:20N 29°56' W 090°08'0 0.2
2015-May-14 07:28N 29°56' W 090°08'0 0.0
2015-May-14 05:14N 29°56' W 090°08'0 0.3
2015-May-14 03:24N 29°57' W 090°08'0 0.3
2015-May-14 02:15N 29°57' W 090°08'0 0.0
2015-May-14 01:32N 29°57' W 090°08'0 0.0
2015-May-14 00:28N 29°57' W 090°08'0 0.1
2015-May-13 23:23N 29°56' W 090°08'0 0.0
2015-May-13 22:04N 29°56' W 090°08'0 0.0
2015-May-13 21:16N 29°56' W 090°08'0 0.0
2015-May-13 20:25N 29°56' W 090°08'0 0.1
2015-May-13 18:33N 29°56' W 090°08'0 0.1
2015-May-13 17:29N 29°56' W 090°08'0 0.1
2015-May-13 14:32N 29°56' W 090°08'0 0.1
2015-May-13 13:30N 29°56' W 090°08'0 0.3
2015-May-13 12:31N 29°56' W 090°09'0 0.5
2015-May-13 11:33N 29°57' W 090°08'0 0.1
2015-May-13 07:21N 29°57' W 090°09'  
Track history (hours):
 
Tides and Currents Weather Stations Pressure Air Temp Water Temp Dewpoint Dewpoint Depression Visibility Wind Speed Wind Dir Waves Ship Positions

Bill Jr

Owner: DAWSON VESSELS INC, MOBILE, AL. More information available from US FCC via Universal Licensing System and Coast Guard Vessel Documentation Center.

Last reported at 2015-May-22 23:10 UTC. Time now 2015-May-23 08:48 UTC.
Position N 29°57' W 090°03'.

Length 21 m.

MMSI: 366976750.

Date/timePositionNaut miles runAvg speedWind from/ knotsBaromVisibWave heightAir tempDewpointWater temp
2015-May-22 23:10N 29°57' W 090°03'6 2.0
2015-May-22 20:12N 29°55' W 089°56'6 1.7
2015-May-22 16:27N 29°57' W 090°04'4 0.1
2015-May-20 13:30N 29°57' W 090°08'0 0.0
2015-May-20 12:10N 29°57' W 090°08'0 0.3
2015-May-20 11:32N 29°57' W 090°08'0 0.2
2015-May-20 10:27N 29°57' W 090°08'0 0.2
2015-May-20 09:22N 29°57' W 090°08'1 0.6
2015-May-20 08:33N 29°56' W 090°09'1 0.5
2015-May-20 07:29N 29°57' W 090°08'0 0.0
2015-May-20 06:31N 29°57' W 090°08'0 0.0
2015-May-20 05:30N 29°57' W 090°08'1 0.5
2015-May-20 04:29N 29°56' W 090°09'0 0.4
2015-May-20 03:34N 29°56' W 090°08'0 0.1
2015-May-20 02:28N 29°56' W 090°08'0 0.2
2015-May-20 00:10N 29°56' W 090°09'1 0.7
2015-May-19 23:16N 29°57' W 090°08'1 0.0
2015-May-19 03:29N 29°56' W 090°09'0 0.0
2015-May-18 06:08N 29°56' W 090°08'0 0.1
2015-May-18 05:21N 29°56' W 090°09'0 0.2
2015-May-18 03:16N 29°56' W 090°08'0 0.0
2015-May-18 02:22N 29°56' W 090°08'0 0.1
2015-May-18 01:33N 29°56' W 090°08'0 0.1
2015-May-18 00:32N 29°56' W 090°08'0 0.0
2015-May-17 23:27N 29°56' W 090°08'0 0.0
2015-May-17 22:25N 29°56' W 090°08'0 0.1
2015-May-17 21:21N 29°56' W 090°08'0 0.2
2015-May-17 20:27N 29°57' W 090°08'0 0.0
2015-May-17 19:32N 29°57' W 090°08'0 0.0
2015-May-17 18:33N 29°57' W 090°08'0 0.4
2015-May-17 17:32N 29°56' W 090°08'0 0.3
2015-May-17 16:11N 29°57' W 090°08'0 0.2
2015-May-17 15:26N 29°56' W 090°08'0 0.0
2015-May-17 14:07N 29°56' W 090°08'0 0.0
2015-May-17 13:32N 29°56' W 090°08'0 0.2
2015-May-17 12:20N 29°56' W 090°08'0 0.3
2015-May-17 11:19N 29°56' W 090°08'0 0.4
2015-May-17 10:29N 29°57' W 090°08'0 0.1
2015-May-17 08:04N 29°56' W 090°08'0 0.0
2015-May-17 07:21N 29°56' W 090°08'0 0.0
2015-May-17 06:29N 29°56' W 090°08'0 0.2
2015-May-17 05:27N 29°56' W 090°08'0 0.0
2015-May-16 17:29N 29°56' W 090°08'0 0.0
2015-May-16 05:12N 29°56' W 090°08'0 0.2
2015-May-16 04:05N 29°57' W 090°08'0 0.0
2015-May-15 21:18N 29°56' W 090°08'0 0.0
2015-May-15 17:19N 29°56' W 090°08'0 0.0
2015-May-15 15:30N 29°56' W 090°08'0 0.0
2015-May-15 14:04N 29°56' W 090°08'0 0.0
2015-May-15 13:24N 29°56' W 090°08'0 0.0
2015-May-15 12:06N 29°56' W 090°08'0 0.0
2015-May-15 11:14N 29°56' W 090°08'0 0.0
2015-May-15 07:24N 29°56' W 090°08'0 0.2
2015-May-15 06:25N 29°56' W 090°08'0 0.0
2015-May-14 13:24N 29°56' W 090°08'0 0.0
2015-May-14 08:20N 29°56' W 090°08'0 0.2
2015-May-14 07:28N 29°56' W 090°08'0 0.0
2015-May-14 05:14N 29°56' W 090°08'0 0.3
2015-May-14 03:24N 29°57' W 090°08'0 0.3
2015-May-14 02:15N 29°57' W 090°08'0 0.0
2015-May-14 01:32N 29°57' W 090°08'0 0.0
2015-May-14 00:28N 29°57' W 090°08'0 0.1
2015-May-13 23:23N 29°56' W 090°08'0 0.0
2015-May-13 22:04N 29°56' W 090°08'0 0.0
2015-May-13 21:16N 29°56' W 090°08'0 0.0
2015-May-13 20:25N 29°56' W 090°08'0 0.1
2015-May-13 18:33N 29°56' W 090°08'0 0.1
2015-May-13 17:29N 29°56' W 090°08'0 0.1
2015-May-13 14:32N 29°56' W 090°08'0 0.1
2015-May-13 13:30N 29°56' W 090°08'0 0.3
2015-May-13 12:31N 29°56' W 090°09'0 0.5
2015-May-13 11:33N 29°57' W 090°08'0 0.1
2015-May-13 07:21N 29°57' W 090°09'  

Dump ship's entire track history